Time;durP1;ratioP1;P1;durP2;ratioP2;P2;SDS_P1;SDS_P2;PMS_P1;PMS_P2;Temp;Humidity;BMP_temperature;BMP_pressure;BME280_temperature;BME280_humidity;BME280_pressure;Samples;Min_cycle;Max_cycle;Signal;HPM_P1;HPM_P2
2023/07/14 00:01:19;;;;;;;9.50;7.50;;;;;;;30.02;58.86;99154.72;4956874;28;20727;-72
2023/07/14 00:03:45;;;;;;;11.63;8.43;;;;;;;30.00;59.38;99159.72;4956529;28;20188;-72
2023/07/14 00:06:13;;;;;;;15.33;8.33;;;;;;;30.02;59.27;99152.00;4956490;28;20246;-72
2023/07/14 00:08:40;;;;;;;13.17;7.80;;;;;;;30.01;59.59;99142.13;4955968;29;20196;-72
2023/07/14 00:11:16;;;;;;;12.57;7.97;;;;;;;30.08;59.60;99152.59;4956964;29;20195;-72
2023/07/14 00:13:44;;;;;;;9.67;7.37;;;;;;;30.06;59.77;99152.94;4956378;29;20250;-72
2023/07/14 00:16:14;;;;;;;9.67;7.90;;;;;;;30.03;60.38;99155.50;4956163;29;20218;-72
2023/07/14 00:18:41;;;;;;;10.07;7.63;;;;;;;29.99;60.13;99158.13;4956226;29;20196;-72
2023/07/14 00:21:15;;;;;;;9.43;8.13;;;;;;;29.86;60.29;99155.59;4956338;29;20224;-72
2023/07/14 00:23:41;;;;;;;12.13;8.00;;;;;;;29.81;60.68;99159.34;4956128;29;20192;-74
2023/07/14 00:26:14;;;;;;;7.57;6.93;;;;;;;29.74;58.82;99150.03;4956325;29;20259;-75
2023/07/14 00:28:40;;;;;;;10.97;6.73;;;;;;;29.72;55.71;99150.34;4956479;29;20704;-76
2023/07/14 00:31:13;;;;;;;7.00;6.27;;;;;;;29.68;54.50;99138.44;4955792;29;20192;-76
2023/07/14 00:33:40;;;;;;;8.63;6.53;;;;;;;29.66;54.07;99140.72;4956017;28;20570;-76
2023/07/14 00:36:07;;;;;;;11.47;6.83;;;;;;;29.65;54.90;99138.31;4956348;28;20279;-76
2023/07/14 00:38:35;;;;;;;7.57;6.90;;;;;;;29.62;54.30;99149.91;4955591;28;20192;-75
2023/07/14 00:41:03;;;;;;;10.10;6.63;;;;;;;29.59;55.77;99139.66;4955998;28;20207;-75
2023/07/14 00:43:32;;;;;;;9.67;6.77;;;;;;;29.56;56.49;99135.56;4955402;28;20619;-74
2023/07/14 00:45:59;;;;;;;11.67;7.63;;;;;;;29.52;58.81;99126.41;4955747;28;20684;-74
2023/07/14 00:48:30;;;;;;;9.67;7.83;;;;;;;29.48;61.01;99119.97;4955918;28;20207;-74
2023/07/14 00:51:01;;;;;;;11.57;8.33;;;;;;;29.46;61.36;99126.91;4955932;28;20250;-74
2023/07/14 00:53:32;;;;;;;9.73;7.97;;;;;;;29.38;61.47;99117.63;4955174;28;20188;-74
2023/07/14 00:56:04;;;;;;;9.37;8.57;;;;;;;29.33;61.90;99126.03;4955960;29;20207;-74
2023/07/14 00:58:31;;;;;;;8.47;7.60;;;;;;;29.30;62.00;99121.19;4955457;29;20668;-74
2023/07/14 01:01:04;;;;;;;8.27;7.53;;;;;;;29.26;62.51;99122.97;4955545;29;20668;-74
2023/07/14 01:03:38;;;;;;;9.10;8.00;;;;;;;29.22;62.38;99119.28;4955832;29;20255;-74
2023/07/14 01:06:08;;;;;;;10.10;7.77;;;;;;;29.15;62.20;99125.25;4963922;28;20201;-75
2023/07/14 01:08:36;;;;;;;10.10;7.20;;;;;;;29.07;61.76;99125.28;4974731;28;20560;-74
2023/07/14 01:11:03;;;;;;;10.67;8.00;;;;;;;28.95;59.94;99131.38;4974707;28;20628;-74
2023/07/14 01:13:31;;;;;;;9.47;7.57;;;;;;;28.97;58.72;99142.81;4974928;28;20195;-74
2023/07/14 01:15:58;;;;;;;7.60;6.90;;;;;;;28.96;58.78;99143.16;4970740;28;20212;-74
2023/07/14 01:18:25;;;;;;;13.40;8.53;;;;;;;28.95;61.75;99133.34;4955205;29;20630;-74
2023/07/14 01:20:53;;;;;;;9.33;7.90;;;;;;;28.93;60.28;99138.31;4955672;29;20204;-73
2023/07/14 01:23:37;;;;;;;8.30;7.53;;;;;;;28.91;62.04;99135.91;4955436;29;20197;-73
2023/07/14 01:26:15;;;;;;;9.30;8.50;;;;;;;28.88;63.10;99135.75;4955240;29;20196;-73
2023/07/14 01:28:43;;;;;;;10.57;8.40;;;;;;;28.85;62.94;99134.47;4955661;29;20188;-72
2023/07/14 01:31:12;;;;;;;9.00;7.57;;;;;;;28.74;60.42;99124.16;4955169;29;20343;-73
2023/07/14 01:33:39;;;;;;;7.83;7.10;;;;;;;28.78;61.81;99125.13;4954899;29;20204;-73
2023/07/14 01:36:06;;;;;;;10.53;8.03;;;;;;;28.70;63.19;99128.69;4954779;29;20255;-73
2023/07/14 01:38:34;;;;;;;10.90;7.80;;;;;;;28.63;62.43;99139.31;4954202;29;20196;-73
2023/07/14 01:41:03;;;;;;;12.50;7.63;;;;;;;28.59;61.15;99127.41;4955070;29;20206;-73
2023/07/14 01:43:30;;;;;;;8.37;7.07;;;;;;;28.57;60.80;99143.31;4954757;29;20252;-74
2023/07/14 01:46:01;;;;;;;10.40;8.40;;;;;;;28.55;64.05;99137.38;4955124;29;20595;-73
2023/07/14 01:48:32;;;;;;;11.10;7.50;;;;;;;28.55;64.55;99142.84;4954821;29;20247;-73
2023/07/14 01:51:06;;;;;;;16.03;7.70;;;;;;;28.54;63.52;99152.19;4954982;29;20291;-73
2023/07/14 01:53:39;;;;;;;7.77;6.97;;;;;;;28.50;61.64;99152.00;4954888;29;20187;-73
2023/07/14 01:56:09;;;;;;;9.43;7.63;;;;;;;28.49;61.45;99155.06;4954477;29;20215;-74
2023/07/14 01:58:44;;;;;;;12.37;8.57;;;;;;;28.46;64.84;99142.84;4954455;29;20220;-74
2023/07/14 02:01:13;;;;;;;11.53;8.43;;;;;;;28.41;65.04;99145.75;4954596;29;20858;-74
2023/07/14 02:03:44;;;;;;;11.50;8.47;;;;;;;28.39;63.55;99171.75;4953369;29;20600;-74
2023/07/14 02:06:11;;;;;;;9.30;7.50;;;;;;;28.36;60.90;99166.91;4963720;28;20198;-74
2023/07/14 02:08:38;;;;;;;6.93;6.27;;;;;;;28.31;57.68;99169.81;4972989;28;20254;-74
2023/07/14 02:11:05;;;;;;;8.23;7.43;;;;;;;28.28;58.76;99159.50;4974044;28;20195;-73
2023/07/14 02:13:33;;;;;;;12.73;6.93;;;;;;;28.29;61.95;99159.19;4973646;28;20272;-73
2023/07/14 02:16:00;;;;;;;8.60;7.43;;;;;;;28.29;61.76;99172.03;4973299;28;20278;-73
2023/07/14 02:18:29;;;;;;;8.93;8.10;;;;;;;28.28;64.31;99159.50;4973475;28;20203;-74
2023/07/14 02:20:57;;;;;;;12.27;8.30;;;;;;;28.23;65.44;99154.22;4960482;28;20251;-74
2023/07/14 02:23:27;;;;;;;11.30;8.23;;;;;;;28.17;65.51;99141.84;4953822;29;20196;-73
2023/07/14 02:26:02;;;;;;;8.87;8.07;;;;;;;28.18;64.86;99148.91;4953199;29;20200;-73
2023/07/14 02:28:29;;;;;;;14.00;8.63;;;;;;;28.17;65.86;99142.63;4953912;29;20890;-73
2023/07/14 02:31:01;;;;;;;12.57;9.00;;;;;;;28.09;66.67;99148.09;4954031;29;20251;-74
2023/07/14 02:33:35;;;;;;;9.70;8.60;;;;;;;28.02;66.63;99145.00;4953893;28;20255;-73
2023/07/14 02:36:11;;;;;;;9.33;8.20;;;;;;;28.00;65.59;99158.16;4954054;28;20271;-74
2023/07/14 02:38:39;;;;;;;9.97;8.87;;;;;;;28.00;66.82;99169.09;4954107;28;20187;-74
2023/07/14 02:41:17;;;;;;;8.97;7.63;;;;;;;27.94;67.21;99159.44;4953938;28;20200;-74
2023/07/14 02:43:45;;;;;;;7.77;7.17;;;;;;;27.89;64.23;99176.78;4954156;28;20199;-74
2023/07/14 02:46:17;;;;;;;8.40;7.60;;;;;;;27.89;61.61;99184.19;4953549;28;20203;-73
2023/07/14 02:48:49;;;;;;;13.20;7.20;;;;;;;27.91;61.25;99192.84;4953083;28;20218;-74
2023/07/14 02:51:17;;;;;;;26.90;10.20;;;;;;;27.93;65.31;99177.75;4953824;29;20188;-74
2023/07/14 02:53:43;;;;;;;20.57;9.37;;;;;;;27.89;66.24;99184.97;4953581;29;20263;-74
2023/07/14 02:56:10;;;;;;;12.97;9.50;;;;;;;27.83;66.94;99196.34;4953366;29;20598;-74
2023/07/14 02:58:37;;;;;;;12.83;8.00;;;;;;;27.71;66.16;99202.38;4953637;29;20415;-74
2023/07/14 03:01:05;;;;;;;10.40;8.00;;;;;;;27.69;64.00;99212.00;4953579;29;20202;-74
2023/07/14 03:03:33;;;;;;;10.43;8.33;;;;;;;27.68;66.08;99210.41;4953325;29;20199;-74
2023/07/14 03:06:01;;;;;;;22.57;9.87;;;;;;;27.55;67.19;99209.38;4960945;28;20202;-74
2023/07/14 03:08:28;;;;;;;16.30;9.13;;;;;;;27.49;67.96;99216.09;4972850;28;20195;-74
2023/07/14 03:10:57;;;;;;;12.73;9.37;;;;;;;27.29;68.92;99205.69;4961858;28;20311;-74
2023/07/14 03:13:24;;;;;;;13.30;9.10;;;;;;;27.15;69.65;99207.63;4953855;29;20192;-73
2023/07/14 03:15:51;;;;;;;10.57;8.90;;;;;;;27.12;69.87;99202.00;4953232;29;20729;-74
2023/07/14 03:18:18;;;;;;;13.83;9.40;;;;;;;27.13;69.66;99203.63;4952848;29;20278;-74
2023/07/14 03:20:45;;;;;;;12.60;9.43;;;;;;;27.03;70.35;99201.16;4953347;29;20251;-74
2023/07/14 03:23:13;;;;;;;14.43;9.80;;;;;;;26.94;70.69;99217.44;4953005;29;20589;-73
2023/07/14 03:25:41;;;;;;;11.70;9.10;;;;;;;26.78;71.89;99221.63;4952880;29;20262;-73
2023/07/14 03:28:07;;;;;;;9.97;8.90;;;;;;;26.73;71.38;99219.03;4953466;29;20199;-74
2023/07/14 03:30:40;;;;;;;14.77;9.10;;;;;;;26.65;71.80;99229.84;4952868;29;20201;-74
2023/07/14 03:33:07;;;;;;;15.97;9.20;;;;;;;26.61;71.63;99234.28;4953608;28;20194;-74
2023/07/14 03:35:34;;;;;;;16.37;8.60;;;;;;;26.66;71.20;99232.25;4957041;29;20282;-75
2023/07/14 03:38:00;;;;;;;11.67;8.93;;;;;;;26.73;70.86;99242.75;4956742;29;20200;-75
2023/07/14 03:40:29;;;;;;;10.00;7.60;;;;;;;26.85;68.10;99256.66;4956686;28;20224;-75
2023/07/14 03:42:55;;;;;;;10.53;7.83;;;;;;;27.12;66.37;99272.91;4956239;28;20199;-74
2023/07/14 03:45:22;;;;;;;15.30;8.37;;;;;;;27.38;65.31;99273.94;4957097;29;20201;-74
2023/07/14 03:47:49;;;;;;;13.20;7.97;;;;;;;27.63;63.82;99289.66;4956697;29;20262;-74
2023/07/14 03:50:16;;;;;;;10.17;8.13;;;;;;;27.78;63.84;99303.75;4956737;29;20207;-74
2023/07/14 03:52:43;;;;;;;18.03;8.50;;;;;;;27.68;64.32;99301.28;4956581;29;20625;-75
2023/07/14 03:55:09;;;;;;;12.87;8.40;;;;;;;27.71;63.98;99305.28;4955693;29;20278;-75
2023/07/14 03:57:38;;;;;;;15.67;8.10;;;;;;;27.81;63.43;99313.25;4956069;29;20258;-75
2023/07/14 04:00:12;;;;;;;11.40;7.87;;;;;;;28.09;61.69;99315.50;4956162;29;20341;-74
2023/07/14 04:02:38;;;;;;;17.33;8.80;;;;;;;28.13;62.91;99323.88;4956039;29;20890;-74
2023/07/14 04:05:07;;;;;;;24.07;9.43;;;;;;;28.09;63.39;99322.91;4956055;28;20196;-75
2023/07/14 04:07:33;;;;;;;12.50;8.53;;;;;;;28.28;61.71;99328.91;4975596;28;20231;-75
2023/07/14 04:10:00;;;;;;;10.63;8.67;;;;;;;28.40;61.70;99323.66;4975786;28;20313;-74
2023/07/14 04:12:27;;;;;;;18.10;8.07;;;;;;;28.36;61.72;99318.03;4969134;28;20251;-75
2023/07/14 04:14:55;;;;;;;18.57;8.70;;;;;;;28.70;60.05;99320.06;4956147;29;20257;-75
2023/07/14 04:17:22;;;;;;;17.00;8.13;;;;;;;29.14;57.88;99336.25;4956738;29;20228;-75
2023/07/14 04:19:49;;;;;;;13.30;8.83;;;;;;;29.41;56.66;99335.94;4956144;29;20283;-74
2023/07/14 04:22:16;;;;;;;20.50;8.37;;;;;;;29.85;54.89;99348.50;4955968;29;20746;-74
2023/07/14 04:24:42;;;;;;;19.07;8.43;;;;;;;30.23;53.51;99344.69;4956374;29;20287;-77
2023/07/14 04:27:09;;;;;;;23.33;8.50;;;;;;;30.65;52.23;99349.19;4955664;29;20200;-77
2023/07/14 04:29:36;;;;;;;15.30;8.17;;;;;;;31.15;50.83;99363.72;4955966;29;20235;-77
2023/07/14 04:32:05;;;;;;;22.43;8.37;;;;;;;31.54;48.38;99370.72;4955728;29;20192;-78
2023/07/14 04:34:32;;;;;;;20.93;8.77;;;;;;;31.82;47.47;99361.63;4956131;28;20255;-77
2023/07/14 04:36:58;;;;;;;14.27;7.73;;;;;;;32.02;46.43;99363.53;4955895;28;20290;-78
2023/07/14 04:39:26;;;;;;;16.63;8.30;;;;;;;32.39;45.61;99358.91;4955695;28;20860;-73
2023/07/14 04:41:54;;;;;;;27.73;8.70;;;;;;;32.64;44.84;99360.50;4954084;28;20934;-77
2023/07/14 04:44:21;;;;;;;23.93;8.60;;;;;;;32.89;44.19;99353.88;4955129;28;20192;-81
2023/07/14 04:46:48;;;;;;;23.23;8.67;;;;;;;32.96;43.58;99352.13;4955829;28;20203;-75
2023/07/14 04:49:16;;;;;;;30.77;8.60;;;;;;;33.03;43.44;99360.63;4955239;28;20278;-74
2023/07/14 04:51:43;;;;;;;42.83;9.50;;;;;;;33.25;42.90;99353.81;4955561;28;20195;-76
2023/07/14 04:54:11;;;;;;;28.47;9.23;;;;;;;33.26;42.29;99306.66;4955509;28;20204;-74
2023/07/14 04:56:39;;;;;;;21.40;8.13;;;;;;;33.93;41.68;99340.84;4955549;28;20330;-75
2023/07/14 04:59:08;;;;;;;27.80;8.32;;;;;;;34.34;39.78;99337.63;4955226;28;20638;-75
2023/07/14 05:01:34;;;;;;;15.57;8.77;;;;;;;34.51;38.87;99328.97;4954315;28;20577;-71
2023/07/14 05:04:01;;;;;;;11.30;7.53;;;;;;;34.75;38.48;99337.03;4953455;29;20196;-66
2023/07/14 05:06:29;;;;;;;33.30;9.32;;;;;;;34.98;38.48;99324.22;4965847;28;20679;-70
2023/07/14 05:08:56;;;;;;;13.82;8.23;;;;;;;35.13;38.27;99337.16;4974340;28;20207;-67
2023/07/14 05:11:23;;;;;;;19.85;7.80;;;;;;;35.27;37.33;99340.25;4973241;28;20195;-69
2023/07/14 05:13:52;;;;;;;30.40;8.43;;;;;;;35.52;36.93;99336.06;4974514;28;20260;-69
2023/07/14 05:16:19;;;;;;;21.15;7.68;;;;;;;35.68;36.53;99336.78;4973998;28;20227;-68
2023/07/14 05:18:46;;;;;;;22.13;9.00;;;;;;;36.00;35.51;99335.41;4974682;28;20257;-68
2023/07/14 05:21:13;;;;;;;18.50;6.93;;;;;;;36.44;33.84;99340.19;4973959;28;20282;-69
2023/07/14 05:23:41;;;;;;;30.70;9.07;;;;;;;36.92;32.85;99342.19;4974026;28;20250;-68
2023/07/14 05:26:08;;;;;;;16.60;8.63;;;;;;;36.89;32.61;99337.38;4973404;28;20950;-69
2023/07/14 05:28:35;;;;;;;23.20;8.35;;;;;;;37.04;32.18;99335.59;4954856;28;20278;-70
2023/07/14 05:31:05;;;;;;;17.70;7.55;;;;;;;37.26;32.16;99343.06;4954614;29;20652;-67
2023/07/14 05:33:32;;;;;;;17.77;7.82;;;;;;;37.21;32.09;99340.63;4954443;29;20709;-65
2023/07/14 05:35:58;;;;;;;13.93;7.13;;;;;;;37.29;31.49;99336.75;4954676;29;20283;-65
2023/07/14 05:38:26;;;;;;;26.85;8.10;;;;;;;37.50;31.07;99337.03;4954974;28;20257;-66
2023/07/14 05:40:56;;;;;;;12.35;6.45;;;;;;;37.52;31.06;99339.41;4954715;28;20195;-69
2023/07/14 05:43:22;;;;;;;11.63;6.65;;;;;;;37.81;30.05;99331.09;4955010;28;20259;-68
2023/07/14 05:45:50;;;;;;;24.05;7.43;;;;;;;38.14;29.41;99344.94;4955104;28;20267;-69
2023/07/14 05:48:18;;;;;;;7.13;6.60;;;;;;;38.26;29.21;99335.50;4954666;28;20580;-68
2023/07/14 05:50:45;;;;;;;11.77;6.40;;;;;;;38.45;28.81;99338.84;4954026;28;20192;-68
2023/07/14 05:53:12;;;;;;;15.35;6.45;;;;;;;38.54;28.95;99335.78;4954063;29;20206;-70
2023/07/14 05:55:39;;;;;;;17.42;6.38;;;;;;;38.80;29.00;99344.72;4952068;28;20783;-69
2023/07/14 05:58:07;;;;;;;7.53;5.90;;;;;;;38.66;27.83;99343.81;4954638;29;20266;-74
2023/07/14 06:00:38;;;;;;;16.42;6.75;;;;;;;39.09;27.63;99354.03;4953115;28;20224;-65
2023/07/14 06:03:06;;;;;;;15.13;5.70;;;;;;;39.41;26.93;99353.06;4953712;29;20188;-65
2023/07/14 06:05:33;;;;;;;27.38;6.88;;;;;;;39.73;26.92;99355.94;4957697;28;20564;-66
2023/07/14 06:07:59;;;;;;;31.85;7.70;;;;;;;39.97;26.68;99347.69;4967157;28;20203;-66
2023/07/14 06:10:26;;;;;;;21.60;7.22;;;;;;;39.75;26.38;99359.94;4952777;29;20232;-64
2023/07/14 06:12:53;;;;;;;28.38;7.47;;;;;;;39.26;26.90;99356.91;4953147;28;20664;-66
2023/07/14 06:15:21;;;;;;;20.55;7.00;;;;;;;39.35;26.69;99353.81;4953915;28;20324;-65
2023/07/14 06:17:49;;;;;;;12.25;5.68;;;;;;;39.36;26.69;99352.63;4952895;28;20255;-65
2023/07/14 06:20:16;;;;;;;9.80;6.45;;;;;;;39.62;26.36;99358.69;4953909;29;20196;-65
2023/07/14 06:22:44;;;;;;;11.00;6.68;;;;;;;39.80;26.32;99361.56;4946558;29;20197;-63
2023/07/14 06:25:12;;;;;;;18.50;6.65;;;;;;;39.75;26.21;99368.28;4937454;29;20204;-65
2023/07/14 06:27:39;;;;;;;23.58;7.95;;;;;;;40.05;26.05;99368.00;4953627;29;20212;-64
2023/07/14 06:30:07;;;;;;;9.70;7.05;;;;;;;40.31;26.42;99368.47;4953677;29;20196;-65
2023/07/14 06:32:35;;;;;;;27.92;7.47;;;;;;;40.16;25.59;99380.75;4953228;29;20196;-64
2023/07/14 06:35:03;;;;;;;39.53;9.20;;;;;;;39.83;25.72;99375.50;4953669;29;20204;-64
2023/07/14 06:37:30;;;;;;;15.73;7.70;;;;;;;38.89;26.86;99381.28;4953310;29;20325;-71
2023/07/14 06:39:57;;;;;;;17.35;7.32;;;;;;;38.87;27.23;99383.63;4953880;29;20264;-69
2023/07/14 06:42:23;;;;;;;17.55;7.57;;;;;;;38.65;27.45;99381.09;4952725;29;20196;-69
2023/07/14 06:44:50;;;;;;;18.10;6.75;;;;;;;38.40;27.90;99377.25;4952841;29;20671;-70
2023/07/14 06:47:17;;;;;;;25.50;7.85;;;;;;;38.61;28.24;99388.63;4953716;29;20211;-68
2023/07/14 06:49:45;;;;;;;47.08;9.18;;;;;;;38.36;28.32;99380.03;4953231;29;20262;-68
2023/07/14 06:52:13;;;;;;;17.10;6.97;;;;;;;38.44;28.66;99390.00;4953214;29;20196;-68
2023/07/14 06:54:40;;;;;;;15.43;7.53;;;;;;;38.27;28.73;99390.66;4953536;29;20208;-67
2023/07/14 06:57:08;;;;;;;14.20;7.50;;;;;;;37.94;29.56;99385.13;4953586;29;20321;-68
2023/07/14 06:59:35;;;;;;;11.43;7.05;;;;;;;38.28;29.65;99389.47;4953380;29;20198;-68
2023/07/14 07:02:01;;;;;;;19.48;6.85;;;;;;;38.36;29.68;99391.13;4952881;29;20250;-70
2023/07/14 07:04:28;;;;;;;31.13;8.90;;;;;;;38.28;29.96;99389.47;4952551;29;20274;-68
2023/07/14 07:06:56;;;;;;;15.13;7.97;;;;;;;37.94;30.19;99376.78;4967560;28;20206;-68
2023/07/14 07:09:23;;;;;;;15.35;7.47;;;;;;;37.98;30.24;99380.41;4934203;29;20235;-68
2023/07/14 07:11:50;;;;;;;15.30;7.43;;;;;;;38.18;30.16;99390.16;4947388;29;20203;-67
2023/07/14 07:14:16;;;;;;;16.45;7.60;;;;;;;38.37;29.66;99392.72;4952630;29;20204;-69
2023/07/14 07:16:43;;;;;;;17.35;8.25;;;;;;;38.29;29.63;99390.28;4952527;29;20219;-72
2023/07/14 07:19:10;;;;;;;16.60;7.85;;;;;;;38.40;29.75;99386.41;4952802;29;20196;-67
2023/07/14 07:21:37;;;;;;;14.73;7.38;;;;;;;38.60;29.63;99387.81;4952451;29;20204;-68
2023/07/14 07:24:06;;;;;;;28.20;8.65;;;;;;;38.34;29.42;99392.69;4951213;29;20246;-69
2023/07/14 07:26:33;;;;;;;26.35;8.10;;;;;;;38.33;29.43;99369.66;4952557;29;20235;-68
2023/07/14 07:29:00;;;;;;;16.95;8.18;;;;;;;38.33;30.01;99391.88;4952882;29;20195;-69
2023/07/14 07:31:28;;;;;;;14.68;7.75;;;;;;;38.35;29.36;99377.63;4951743;29;20192;-67
2023/07/14 07:33:54;;;;;;;24.48;8.85;;;;;;;38.26;29.54;99386.28;4951754;29;20576;-67
2023/07/14 07:36:24;;;;;;;13.48;7.57;;;;;;;38.04;30.61;99390.00;4952689;29;20200;-71
2023/07/14 07:38:52;;;;;;;17.83;8.15;;;;;;;38.03;30.11;99385.63;4952824;29;20199;-71
2023/07/14 07:41:23;;;;;;;21.00;9.02;;;;;;;38.09;30.11;99375.00;4950512;29;20251;-69
2023/07/14 07:43:50;;;;;;;21.60;7.78;;;;;;;37.96;30.28;99368.88;4952754;29;20199;-67
2023/07/14 07:46:17;;;;;;;16.52;8.02;;;;;;;37.80;30.90;99373.84;4952264;29;20227;-67
2023/07/14 07:48:44;;;;;;;27.67;8.40;;;;;;;37.88;30.21;99374.75;4953298;29;20247;-67
2023/07/14 07:51:12;;;;;;;14.07;7.90;;;;;;;37.89;30.52;99370.78;4953774;29;20287;-69
2023/07/14 07:53:39;;;;;;;13.77;7.95;;;;;;;37.87;30.61;99368.38;4953181;29;20258;-68
2023/07/14 07:56:05;;;;;;;9.38;7.57;;;;;;;38.09;30.58;99359.13;4953731;29;20279;-68
2023/07/14 07:58:33;;;;;;;15.00;8.48;;;;;;;38.14;30.39;99367.13;4955836;28;20219;-68
2023/07/14 08:01:02;;;;;;;13.32;8.02;;;;;;;38.48;29.96;99365.88;4963317;28;20250;-72
2023/07/14 08:03:29;;;;;;;23.35;8.27;;;;;;;38.55;29.34;99362.34;4955007;28;20674;-68
2023/07/14 08:05:59;;;;;;;17.48;7.95;;;;;;;38.70;29.07;99372.41;4961734;28;20259;-69
2023/07/14 08:08:26;;;;;;;18.35;8.77;;;;;;;38.68;29.42;99370.00;4960551;28;20691;-68
2023/07/14 08:10:53;;;;;;;18.02;8.55;;;;;;;38.61;28.46;99358.06;4962516;28;20275;-69
2023/07/14 08:13:20;;;;;;;14.45;8.43;;;;;;;38.82;28.65;99370.09;4960141;28;20566;-70
2023/07/14 08:15:49;;;;;;;12.07;7.65;;;;;;;39.08;28.30;99367.16;4961771;28;20642;-68
2023/07/14 08:18:16;;;;;;;9.98;7.70;;;;;;;39.03;27.96;99356.38;4962707;28;20286;-69
2023/07/14 08:20:42;;;;;;;17.50;8.52;;;;;;;38.91;28.69;99367.03;4964955;28;20188;-68
2023/07/14 08:23:13;;;;;;;15.65;8.18;;;;;;;38.96;28.23;99367.47;4965335;28;20207;-67
2023/07/14 08:25:40;;;;;;;19.40;9.00;;;;;;;38.76;27.83;99366.09;4965074;28;20275;-69
2023/07/14 08:28:07;;;;;;;13.63;7.78;;;;;;;38.88;27.68;99365.00;4965950;28;20262;-69
2023/07/14 08:30:34;;;;;;;8.98;7.80;;;;;;;38.80;27.21;99366.94;4966501;28;20250;-70
2023/07/14 08:33:02;;;;;;;9.85;7.72;;;;;;;38.94;27.38;99361.50;4965616;28;20196;-68
2023/07/14 08:35:29;;;;;;;11.30;7.63;;;;;;;39.03;28.48;99356.38;4965227;28;20231;-70
2023/07/14 08:37:56;;;;;;;37.28;10.38;;;;;;;38.71;29.18;99355.38;4965996;28;20215;-68
2023/07/14 08:40:31;;;;;;;24.80;8.48;;;;;;;38.92;29.28;99343.63;4965460;28;20574;-70
2023/07/14 08:43:14;;;;;;;23.02;8.88;;;;;;;39.19;28.56;99348.53;4963811;28;20659;-67
2023/07/14 08:45:51;;;;;;;33.05;9.00;;;;;;;39.65;27.65;99351.56;4966296;28;20559;-67
2023/07/14 08:48:31;;;;;;;20.30;9.52;;;;;;;39.58;26.89;99352.31;4965636;28;20562;-69
2023/07/14 08:51:04;;;;;;;16.77;9.32;;;;;;;39.64;26.11;99361.88;4964093;28;20275;-67
2023/07/14 08:53:33;;;;;;;11.38;8.40;;;;;;;40.00;25.92;99357.22;4961792;28;20250;-67
2023/07/14 08:56:03;;;;;;;11.75;9.00;;;;;;;39.94;25.43;99359.63;4964125;28;20199;-66
2023/07/14 08:58:32;;;;;;;10.45;8.18;;;;;;;39.61;25.33;99357.13;4960498;28;20223;-65
2023/07/14 09:01:09;;;;;;;13.80;8.30;;;;;;;39.64;25.59;99350.75;4963283;28;20201;-64
2023/07/14 09:03:43;;;;;;;13.13;8.02;;;;;;;39.85;25.01;99353.63;4962201;28;20180;-65
2023/07/14 09:06:24;;;;;;;13.27;8.65;;;;;;;39.71;24.80;99350.78;4962248;28;20659;-65
2023/07/14 09:08:52;;;;;;;18.58;8.15;;;;;;;40.10;23.89;99350.91;4960310;28;20192;-65
2023/07/14 09:11:42;;;;;;;19.63;7.93;;;;;;;40.62;24.34;99350.19;4965292;28;20190;-65
2023/07/14 09:14:30;;;;;;;13.32;7.75;;;;;;;41.12;23.47;99353.72;4942160;29;20272;-65
2023/07/14 09:17:17;;;;;;;10.00;8.70;;;;;;;41.42;22.58;99342.91;4954152;29;20603;-66
2023/07/14 09:20:01;;;;;;;17.85;8.40;;;;;;;41.18;22.82;99343.75;4954988;29;20545;-65
2023/07/14 09:22:36;;;;;;;13.18;8.23;;;;;;;40.87;23.54;99335.00;4952894;29;20191;-68
2023/07/14 09:25:13;;;;;;;14.23;8.48;;;;;;;40.72;23.53;99329.88;4955538;29;20198;-67
2023/07/14 09:27:42;;;;;;;35.60;9.10;;;;;;;40.76;22.82;99336.25;4955023;29;20203;-66
2023/07/14 09:30:18;;;;;;;18.55;8.35;;;;;;;40.48;22.50;99328.69;4954692;28;20192;-69
2023/07/14 09:32:49;;;;;;;15.40;8.15;;;;;;;40.28;23.20;99330.25;4960170;28;20190;-66
2023/07/14 09:35:19;;;;;;;22.02;7.90;;;;;;;40.53;22.95;99333.84;4960444;28;20184;-66
2023/07/14 09:37:54;;;;;;;13.10;8.40;;;;;;;40.39;22.07;99319.94;4958386;28;20650;-66
2023/07/14 09:40:22;;;;;;;13.40;7.93;;;;;;;40.42;22.53;99319.13;4961646;28;20242;-67
2023/07/14 09:42:51;;;;;;;17.60;8.02;;;;;;;40.43;22.54;99320.72;4972970;28;20290;-66
2023/07/14 09:45:20;;;;;;;16.42;7.97;;;;;;;40.29;22.42;99322.72;4969716;28;20275;-67
2023/07/14 09:47:51;;;;;;;10.52;8.45;;;;;;;40.51;22.81;99321.50;4954563;29;20227;-69
2023/07/14 09:50:21;;;;;;;10.13;8.43;;;;;;;40.65;22.27;99321.50;4954694;29;20184;-67
2023/07/14 09:52:57;;;;;;;13.77;8.10;;;;;;;40.42;21.91;99319.13;4954745;29;20207;-66
2023/07/14 09:55:24;;;;;;;9.93;8.02;;;;;;;40.68;22.60;99320.72;4954876;29;20243;-65
2023/07/14 09:57:54;;;;;;;12.50;7.90;;;;;;;40.37;22.74;99315.94;4955300;29;20220;-64
2023/07/14 10:00:27;;;;;;;8.85;8.02;;;;;;;40.36;23.03;99309.59;4954953;29;20659;-65
2023/07/14 10:03:15;;;;;;;15.88;8.57;;;;;;;39.96;23.10;99307.13;4955414;29;20187;-66
2023/07/14 10:05:55;;;;;;;15.20;8.43;;;;;;;39.99;24.09;99303.56;4952993;28;20202;-65
2023/07/14 10:08:29;;;;;;;19.85;8.00;;;;;;;40.51;24.14;99305.59;4962848;28;20192;-65
2023/07/14 10:10:58;;;;;;;51.70;9.95;;;;;;;40.82;23.32;99301.19;4954624;28;20595;-66
2023/07/14 10:13:28;;;;;;;9.77;7.28;;;;;;;40.41;23.96;99306.38;4954684;29;20267;-67
2023/07/14 10:15:58;;;;;;;12.88;7.50;;;;;;;40.73;24.33;99296.03;4954052;29;20212;-65
2023/07/14 10:18:27;;;;;;;17.05;8.15;;;;;;;41.11;23.97;99293.56;4954491;29;20307;-66
2023/07/14 10:21:07;;;;;;;18.60;7.82;;;;;;;41.09;22.96;99296.75;4954668;29;20196;-66
2023/07/14 10:23:35;;;;;;;12.82;7.65;;;;;;;40.60;23.36;99306.00;4954608;29;20275;-66
2023/07/14 10:26:05;;;;;;;11.25;7.75;;;;;;;40.24;24.43;99292.47;4954530;29;20659;-65
2023/07/14 10:28:35;;;;;;;17.92;8.10;;;;;;;40.10;24.17;99287.69;4953839;29;20192;-66
2023/07/14 10:31:10;;;;;;;13.27;8.13;;;;;;;40.42;24.22;99280.13;4952668;29;20193;-67
2023/07/14 10:33:48;;;;;;;8.73;7.60;;;;;;;40.59;24.26;99284.91;4952678;29;20195;-67
2023/07/14 10:36:21;;;;;;;18.75;8.02;;;;;;;40.31;24.97;99278.53;4952816;29;20584;-66
2023/07/14 10:38:54;;;;;;;21.08;8.68;;;;;;;40.25;24.91;99280.94;4952000;29;20295;-66
2023/07/14 10:41:22;;;;;;;12.55;7.35;;;;;;;40.60;24.51;99280.13;4953691;28;20588;-66
2023/07/14 10:43:54;;;;;;;14.43;7.65;;;;;;;40.62;24.73;99267.38;4954053;29;20255;-66
2023/07/14 10:46:24;;;;;;;10.48;7.72;;;;;;;40.64;24.74;99270.59;4954361;29;20243;-66
2023/07/14 10:48:55;;;;;;;11.85;7.45;;;;;;;40.57;24.58;99266.97;4953994;29;20270;-66
2023/07/14 10:51:40;;;;;;;12.23;7.60;;;;;;;40.24;25.02;99267.41;4953831;29;20184;-66
2023/07/14 10:54:13;;;;;;;8.23;6.75;;;;;;;40.31;25.02;99257.06;4954466;29;20219;-66
2023/07/14 10:56:45;;;;;;;13.52;7.72;;;;;;;40.77;24.71;99255.03;4954840;29;20243;-66
2023/07/14 10:59:17;;;;;;;18.67;7.75;;;;;;;41.00;24.28;99243.41;4954350;29;20219;-67
2023/07/14 11:01:57;;;;;;;18.98;7.72;;;;;;;41.15;24.41;99252.53;4954186;29;20188;-66
2023/07/14 11:04:30;;;;;;;21.98;8.15;;;;;;;41.15;24.47;99253.34;4953413;29;20644;-66
2023/07/14 11:07:00;;;;;;;15.02;7.72;;;;;;;41.25;24.02;99246.09;4968970;28;20188;-67
2023/07/14 11:09:28;;;;;;;12.98;7.32;;;;;;;41.41;23.82;99246.41;4934918;29;20323;-66
2023/07/14 11:12:05;;;;;;;12.20;7.30;;;;;;;41.19;23.94;99240.19;4934478;29;20649;-66
2023/07/14 11:14:41;;;;;;;17.85;7.70;;;;;;;41.19;23.57;99236.56;4933211;29;20660;-67
2023/07/14 11:17:21;;;;;;;17.15;6.95;;;;;;;41.01;23.12;99235.88;4940115;29;20263;-65
2023/07/14 11:19:58;;;;;;;26.70;8.00;;;;;;;41.03;23.88;99226.69;4952259;29;20240;-66
2023/07/14 11:22:51;;;;;;;9.63;7.13;;;;;;;41.42;23.62;99225.75;4953060;29;20188;-65
2023/07/14 11:25:21;;;;;;;13.05;7.72;;;;;;;41.65;22.42;99234.34;4952733;29;20255;-64
2023/07/14 11:27:57;;;;;;;8.27;7.03;;;;;;;41.40;22.08;99228.09;4952015;29;20247;-66
2023/07/14 11:30:29;;;;;;;13.93;7.40;;;;;;;41.49;22.30;99220.09;4952637;29;20188;-64
2023/07/14 11:33:05;;;;;;;17.17;7.28;;;;;;;41.61;21.82;99223.22;4951250;29;20227;-66
2023/07/14 11:35:35;;;;;;;12.77;6.43;;;;;;;41.57;22.05;99222.44;4950721;29;20202;-66
2023/07/14 11:38:21;;;;;;;17.63;6.63;;;;;;;41.81;21.88;99223.47;4952408;29;20234;-70